createdAt,value
2019-01-05T00:01:29.878Z,13.23
2019-01-05T00:04:15.751Z,13.30
2019-01-05T00:07:02.599Z,11.87
2019-01-05T00:09:49.987Z,13.90
2019-01-05T00:12:49.091Z,12.43
2019-01-05T00:15:35.240Z,12.90
2019-01-05T00:18:27.787Z,11.93
2019-01-05T00:21:25.605Z,12.20
2019-01-05T00:24:13.051Z,10.10
2019-01-05T00:27:15.811Z,8.40
2019-01-05T00:30:01.888Z,7.33
2019-01-05T00:33:03.863Z,7.43
2019-01-05T00:36:29.020Z,8.57
2019-01-05T00:39:15.015Z,8.63
2019-01-05T00:42:01.148Z,8.23
2019-01-05T00:44:52.090Z,6.20
2019-01-05T00:47:39.593Z,7.67
2019-01-05T00:50:45.426Z,8.60
2019-01-05T00:53:50.956Z,8.60
2019-01-05T00:56:45.690Z,7.07
2019-01-05T00:59:48.195Z,7.37
2019-01-05T01:02:33.827Z,7.00
2019-01-05T01:05:33.106Z,8.37
2019-01-05T01:08:17.298Z,6.73
2019-01-05T01:11:07.471Z,7.10
2019-01-05T01:14:13.136Z,7.57
2019-01-05T01:17:08.808Z,7.37
2019-01-05T01:19:55.875Z,5.93
2019-01-05T01:22:42.294Z,6.33
2019-01-05T01:25:38.482Z,5.20
2019-01-05T01:28:24.693Z,7.73
2019-01-05T01:31:11.404Z,6.03
2019-01-05T01:34:01.659Z,5.43
2019-01-05T01:36:48.299Z,5.17
2019-01-05T01:39:48.425Z,5.17
2019-01-05T01:42:38.496Z,4.30
2019-01-05T01:45:25.932Z,5.03
2019-01-05T01:48:17.295Z,5.53
2019-01-05T01:51:04.474Z,5.30
2019-01-05T01:53:50.184Z,6.00
2019-01-05T01:56:50.987Z,5.77
2019-01-05T02:00:06.503Z,7.07
2019-01-05T02:02:58.738Z,5.43
2019-01-05T02:05:50.794Z,5.27
2019-01-05T02:08:41.226Z,7.50
2019-01-05T02:11:37.065Z,5.37
2019-01-05T02:14:27.155Z,4.30
2019-01-05T02:17:22.279Z,5.90
2019-01-05T02:20:35.300Z,6.07
2019-01-05T02:24:11.431Z,5.33
2019-01-05T02:27:44.934Z,5.13
2019-01-05T02:31:09.225Z,5.77
2019-01-05T02:34:39.465Z,6.23
2019-01-05T02:38:47.203Z,5.10
2019-01-05T02:42:00.376Z,7.07
2019-01-05T02:45:22.972Z,6.23
2019-01-05T02:48:50.824Z,6.20
2019-01-05T02:51:49.519Z,4.90
2019-01-05T02:55:40.380Z,6.00
2019-01-05T02:59:09.018Z,5.57
2019-01-05T03:02:45.203Z,5.53
2019-01-05T03:06:11.895Z,6.23
2019-01-05T03:09:56.191Z,6.43
2019-01-05T03:13:15.943Z,5.67
2019-01-05T03:16:43.421Z,7.40
2019-01-05T03:20:20.007Z,7.70
2019-01-05T03:23:40.103Z,7.13
2019-01-05T03:26:57.057Z,6.97
2019-01-05T03:30:34.033Z,8.00
2019-01-05T03:34:12.484Z,5.73
2019-01-05T03:37:55.495Z,7.53
2019-01-05T03:41:35.757Z,6.20
2019-01-05T03:44:39.045Z,5.80
2019-01-05T03:48:24.378Z,5.17
2019-01-05T03:51:46.915Z,6.00
2019-01-05T03:55:17.902Z,5.10
2019-01-05T03:58:46.433Z,6.43
2019-01-05T04:02:25.165Z,5.87
2019-01-05T04:05:34.276Z,7.17
2019-01-05T04:08:56.997Z,7.00
2019-01-05T04:12:07.325Z,5.37
2019-01-05T04:15:51.491Z,6.77
2019-01-05T04:19:28.760Z,5.57
2019-01-05T04:22:49.881Z,5.57
2019-01-05T04:26:19.104Z,5.63
2019-01-05T04:29:39.349Z,6.27
2019-01-05T04:33:08.105Z,6.73
2019-01-05T04:36:37.822Z,6.07
2019-01-05T04:40:05.084Z,5.10
2019-01-05T04:43:41.126Z,5.93
2019-01-05T04:46:51.162Z,6.80
2019-01-05T04:50:36.738Z,5.10
2019-01-05T04:54:18.198Z,4.90
2019-01-05T04:57:40.639Z,6.03
2019-01-05T05:01:10.082Z,6.27
2019-01-05T05:04:59.135Z,7.93
2019-01-05T05:08:24.176Z,6.13
2019-01-05T05:11:46.695Z,6.70
2019-01-05T05:15:39.224Z,7.87
2019-01-05T05:19:05.422Z,5.23
2019-01-05T05:22:30.819Z,5.87
2019-01-05T05:25:53.483Z,6.47
2019-01-05T05:29:33.572Z,7.27
2019-01-05T05:33:11.804Z,6.63
2019-01-05T05:36:57.264Z,6.73
2019-01-05T05:40:20.297Z,6.90
2019-01-05T05:44:07.066Z,8.40
2019-01-05T05:47:49.790Z,6.70
2019-01-05T05:51:23.283Z,6.43
2019-01-05T05:55:15.433Z,8.30
2019-01-05T05:58:43.088Z,10.63
2019-01-05T06:01:59.711Z,8.07
2019-01-05T06:05:18.375Z,7.97
2019-01-05T06:08:36.623Z,9.00
2019-01-05T06:12:19.115Z,7.67
2019-01-05T06:15:57.228Z,7.53
2019-01-05T06:19:36.595Z,7.67
2019-01-05T06:22:59.927Z,7.70
2019-01-05T06:26:35.340Z,6.83
2019-01-05T06:30:26.708Z,6.77
2019-01-05T06:33:41.673Z,7.67
2019-01-05T06:36:56.882Z,6.43
2019-01-05T06:40:44.046Z,6.47
2019-01-05T06:44:05.746Z,6.93
2019-01-05T06:47:20.118Z,7.87
2019-01-05T06:51:05.356Z,8.03
2019-01-05T06:54:14.371Z,9.17
2019-01-05T06:58:07.014Z,8.43
2019-01-05T07:02:04.607Z,9.57
2019-01-05T07:05:34.350Z,20.67
2019-01-05T07:09:07.330Z,17.53
2019-01-05T07:12:31.157Z,13.57
2019-01-05T07:16:13.160Z,13.43
2019-01-05T07:19:39.909Z,13.17
2019-01-05T07:23:04.167Z,15.00
2019-01-05T07:26:39.383Z,15.70
2019-01-05T07:30:02.383Z,16.77
2019-01-05T07:33:21.803Z,13.57
2019-01-05T07:36:49.684Z,11.07
2019-01-05T07:40:26.156Z,10.23
2019-01-05T07:43:52.503Z,10.50
2019-01-05T07:47:39.851Z,14.50
2019-01-05T07:51:25.207Z,13.10
2019-01-05T07:55:00.430Z,9.53
2019-01-05T07:58:39.890Z,10.07
2019-01-05T08:02:28.338Z,10.60
2019-01-05T08:06:12.658Z,10.83
2019-01-05T08:10:05.323Z,13.43
2019-01-05T08:13:30.501Z,21.43
2019-01-05T08:16:55.236Z,29.00
2019-01-05T08:20:48.199Z,19.93
2019-01-05T08:24:08.639Z,26.60
2019-01-05T08:27:38.220Z,34.17
2019-01-05T08:31:20.595Z,58.53
2019-01-05T08:35:25.554Z,97.50
2019-01-05T08:38:45.083Z,59.87
2019-01-05T08:42:05.128Z,36.70
2019-01-05T08:45:37.135Z,32.57
2019-01-05T08:49:10.779Z,48.20
2019-01-05T08:52:36.074Z,38.30
2019-01-05T08:56:27.454Z,22.10
2019-01-05T09:00:03.714Z,18.90
2019-01-05T09:03:35.819Z,33.90
2019-01-05T09:07:01.374Z,35.07
2019-01-05T09:10:43.956Z,33.47
2019-01-05T09:14:45.441Z,31.93
2019-01-05T09:17:59.396Z,34.83
2019-01-05T09:21:25.845Z,36.27
2019-01-05T09:24:54.963Z,34.30
2019-01-05T09:28:47.515Z,42.13
2019-01-05T09:32:21.490Z,52.93
2019-01-05T09:36:15.586Z,49.90
2019-01-05T09:39:34.993Z,46.90
2019-01-05T09:42:52.186Z,41.80
2019-01-05T09:46:18.251Z,47.27
2019-01-05T09:50:00.535Z,45.87
2019-01-05T09:53:34.559Z,38.60
2019-01-05T09:57:09.675Z,44.23
2019-01-05T10:00:51.520Z,45.47
2019-01-05T10:04:35.161Z,42.07
2019-01-05T10:07:58.917Z,40.73
2019-01-05T10:11:38.675Z,34.03
2019-01-05T10:15:20.304Z,34.83
2019-01-05T10:19:18.571Z,29.47
2019-01-05T10:22:57.415Z,36.00
2019-01-05T10:26:15.144Z,30.93
2019-01-05T10:29:35.380Z,27.93
2019-01-05T10:33:06.307Z,28.90
2019-01-05T10:36:43.831Z,30.23
2019-01-05T10:40:45.622Z,28.67
2019-01-05T10:44:06.233Z,23.63
2019-01-05T10:47:43.962Z,23.53
2019-01-05T10:51:12.086Z,26.30
2019-01-05T10:54:42.704Z,26.47
2019-01-05T10:58:21.808Z,25.83
2019-01-05T11:01:44.936Z,29.30
2019-01-05T11:05:09.690Z,27.03
2019-01-05T11:08:45.764Z,25.73
2019-01-05T11:12:06.703Z,27.67
2019-01-05T11:15:48.627Z,28.17
2019-01-05T11:19:35.195Z,25.13
2019-01-05T11:23:19.314Z,26.10
2019-01-05T11:27:01.939Z,26.00
2019-01-05T11:30:17.599Z,25.10
2019-01-05T11:34:05.441Z,28.80
2019-01-05T11:37:37.205Z,26.93
2019-01-05T11:41:38.852Z,23.80
2019-01-05T11:44:53.364Z,24.67
2019-01-05T11:48:21.131Z,44.00
2019-01-05T11:52:03.490Z,25.83
2019-01-05T11:55:17.976Z,26.20
2019-01-05T11:58:31.005Z,25.60
2019-01-05T12:01:50.055Z,27.60
2019-01-05T12:05:21.079Z,28.87
2019-01-05T12:08:50.185Z,33.53
2019-01-05T12:12:13.563Z,29.20
2019-01-05T12:15:45.400Z,29.47
2019-01-05T12:19:09.929Z,28.93
2019-01-05T12:22:25.363Z,28.53
2019-01-05T12:26:07.180Z,36.77
2019-01-05T12:29:44.376Z,37.27
2019-01-05T12:33:18.518Z,35.80
2019-01-05T12:36:39.266Z,36.17
2019-01-05T12:40:11.077Z,54.30
2019-01-05T12:43:57.555Z,40.83
2019-01-05T12:47:47.045Z,28.37
2019-01-05T12:51:24.690Z,26.47
2019-01-05T12:55:25.939Z,26.70
2019-01-05T12:59:00.593Z,30.07
2019-01-05T13:02:48.856Z,28.10
2019-01-05T13:06:13.712Z,92.93
2019-01-05T13:10:12.298Z,117.20
2019-01-05T13:14:07.500Z,122.43
2019-01-05T13:17:35.023Z,112.57
2019-01-05T13:21:13.471Z,99.97
2019-01-05T13:24:28.531Z,37.20
2019-01-05T13:28:05.858Z,32.77
2019-01-05T13:31:43.629Z,24.77
2019-01-05T13:35:06.242Z,114.73
2019-01-05T13:38:36.023Z,135.03
2019-01-05T13:42:12.903Z,47.33
2019-01-05T13:45:45.735Z,49.33
2019-01-05T13:49:18.528Z,38.23
2019-01-05T13:52:53.126Z,23.57
2019-01-05T13:55:56.415Z,22.87
2019-01-05T13:59:01.935Z,19.23
2019-01-05T14:01:57.928Z,17.20
2019-01-05T14:04:45.221Z,19.30
2019-01-05T14:07:31.086Z,16.87
2019-01-05T14:10:33.002Z,14.77
2019-01-05T14:13:35.159Z,17.70
2019-01-05T14:16:36.350Z,13.83
2019-01-05T14:19:26.327Z,13.20
2019-01-05T14:22:19.189Z,13.20
2019-01-05T14:25:21.522Z,12.30
2019-01-05T14:28:24.215Z,38.20
2019-01-05T14:31:17.681Z,26.10
2019-01-05T14:34:05.141Z,23.17
2019-01-05T14:37:14.345Z,24.30
2019-01-05T14:40:00.351Z,24.87
2019-01-05T14:42:45.968Z,35.87
2019-01-05T14:45:48.161Z,22.57
2019-01-05T14:48:35.226Z,20.93
2019-01-05T14:51:25.911Z,17.90
2019-01-05T14:54:11.561Z,20.93
2019-01-05T14:56:57.764Z,16.97
2019-01-05T14:59:57.231Z,19.37
2019-01-05T15:02:47.672Z,18.10
2019-01-05T15:05:33.232Z,17.97
2019-01-05T15:08:19.006Z,16.23
2019-01-05T15:11:06.451Z,17.50
2019-01-05T15:13:52.036Z,17.37
2019-01-05T15:16:45.018Z,24.73
2019-01-05T15:19:32.444Z,28.67
2019-01-05T15:22:22.693Z,26.53
2019-01-05T15:25:10.866Z,24.37
2019-01-05T15:27:56.507Z,21.80
2019-01-05T15:30:42.124Z,22.63
2019-01-05T15:33:40.523Z,23.93
2019-01-05T15:36:24.268Z,23.23
2019-01-05T15:39:09.820Z,21.83
2019-01-05T15:41:50.819Z,29.40
2019-01-05T15:44:36.495Z,37.10
2019-01-05T15:47:22.209Z,41.90
2019-01-05T15:50:08.230Z,43.40
2019-01-05T15:53:04.702Z,47.60
2019-01-05T15:55:52.323Z,51.47
2019-01-05T15:58:39.761Z,41.10
2019-01-05T16:01:27.476Z,43.00
2019-01-05T16:04:29.675Z,48.30
2019-01-05T16:07:15.170Z,39.73
2019-01-05T16:10:00.739Z,37.90
2019-01-05T16:13:03.557Z,37.47
2019-01-05T16:16:08.768Z,34.97
2019-01-05T16:18:54.728Z,36.83
2019-01-05T16:21:48.443Z,48.67
2019-01-05T16:24:51.137Z,43.77
2019-01-05T16:27:47.839Z,38.83
2019-01-05T16:30:35.401Z,37.20
2019-01-05T16:33:15.293Z,41.33
2019-01-05T16:36:01.176Z,41.40
2019-01-05T16:38:46.856Z,49.40
2019-01-05T16:41:36.994Z,46.17
2019-01-05T16:44:39.615Z,38.77
2019-01-05T16:47:25.695Z,36.43
2019-01-05T16:50:30.987Z,38.23
2019-01-05T16:53:16.700Z,37.67
2019-01-05T16:56:12.943Z,52.83
2019-01-05T16:59:15.600Z,45.30
2019-01-05T17:02:01.570Z,52.20
2019-01-05T17:04:47.371Z,42.33
2019-01-05T17:07:37.618Z,39.30
2019-01-05T17:10:34.055Z,45.97
2019-01-05T17:13:19.835Z,46.30
2019-01-05T17:16:37.204Z,41.63
2019-01-05T17:19:22.032Z,47.77
2019-01-05T17:22:12.168Z,43.67
2019-01-05T17:25:02.390Z,42.17
2019-01-05T17:27:48.350Z,50.00
2019-01-05T17:30:26.264Z,48.20
2019-01-05T17:33:16.464Z,44.93
2019-01-05T17:36:02.219Z,50.20
2019-01-05T17:39:04.514Z,51.43
2019-01-05T17:41:55.573Z,47.43
2019-01-05T17:44:34.847Z,42.20
2019-01-05T17:47:24.927Z,42.17
2019-01-05T23:20:51.774Z,20.17
2019-01-05T23:23:42.008Z,17.07
2019-01-05T23:26:28.187Z,19.70
2019-01-05T23:29:14.998Z,18.63
2019-01-05T23:32:05.321Z,18.63
2019-01-05T23:35:00.934Z,17.33
2019-01-05T23:38:06.618Z,15.70
2019-01-05T23:40:53.950Z,16.13
2019-01-05T23:43:39.093Z,20.93
2019-01-05T23:46:25.311Z,17.47
2019-01-05T23:49:24.800Z,17.67
2019-01-05T23:52:30.468Z,14.80
2019-01-05T23:55:16.491Z,16.77
2019-01-05T23:58:12.444Z,14.00
